Pagrindinis puslapis
METAR-TAF:

METAR-TAF

Oro uostai :

Almerija, Ispanija

platuma: 36-51N, ilguma: 002-23W, Aukštis: 15 m

Dabartinis oras

Ataskaita buvo paskelbta 11 minutes, ne 10:30 UTC
Vėjas 5 kt iš Vakarų/Šiaurės Vakarų, svyruoja nuo Pietvakarių ir Šiaurės/Šiaurės Vakarų
Temperatūra 14°C
Drėgmė 72%
Slėgis 1020 hPa
Matomumas 10 km arba daugiau
Mažai debesys ne aukštis 5000 ft
Apsiniaukę ne aukštis 8000 ft
lietus

METAR: LEAM 251030Z 29005KT 220V330 9999 -RA FEW050 OVC080 14/09 Q1020

Laikas: 11:41 (10:41 UTC)

Prognozė

Ataskaita buvo paskelbta 2 valandos ir 41 minutes, ne 08:00 UTC
Prognozė galioja nuo 25 metu 09 UTC su 26 metu 09 UTC
Vėjas 7 kt iš Šiaurės
Matomumas 10 km arba daugiau
Mažai debesys ne aukštis 2500 ft
Išsisklaidę debesys ne aukštis 4000 ft
Tikimybė 30% :
Laikinai
nuo 25 metu 12 UTC su 25 metu 15 UTC
Matomumas: 4000 m
Mažai debesys ne aukštis 2500 ft, Liūtiniai kamuoliniai debesys.
lietus

TAF: LEAM 250800Z 2509/2609 35007KT 9999 FEW025 SCT040 TX15/2513Z TN07/2606Z PROB30 TEMPO 2512/2515 4000 SHRA FEW025CB

Orai ataskaitas ir orų prognozės (METAR, TAF).

turimą stotys yra geltonos ir raudonos taškus žemėlapyje.

Perkelti pele per norėdami pamatyti stoties vardą.

Tada spustelėkite, norėdami matyti oro stebėjimo ir prognozės.

Norėdami pakeisti žemėlapį: spustelėkite ant žalios mygtukų su juodo kryžiaus žemyn,; žalią mygtuką su brūkšneliu, jei norite nutolinti; arba žalių rodyklių gretimoms žemėlapius.


METAR-TAF: